Airport View

Enter AWOS ICAO identifier for current METAR.

ex. KFNL

KMSP 121053Z 26003KT 10SM CLR M14/M19 A3056 RMK AO2 SLP369 T11441189 $

12 Nov 2019 11:18

Phone: 612-713-4174

Other Area AWOS: KSTP - KSGS - KFCM - KMIC

TAF AMD KMSP 120856Z 1209/1312 30005KT P6SM SKC FM121200 23004KT P6SM SKC FM121600 19007KT P6SM SCT250 FM122000 17012G20KT P6SM SCT120 BKN200 FM130400 16012KT P6SM OVC100